Time;durP1;ratioP1;P1;durP2;ratioP2;P2;SDS_P1;SDS_P2;PMS_P1;PMS_P2;Temp;Humidity;BMP_temperature;BMP_pressure;BME280_temperature;BME280_humidity;BME280_pressure;Samples;Min_cycle;Max_cycle;Signal;HPM_P1;HPM_P2
2023/06/12 00:00:54;;;;;;;2.50;0.85;;;;;;;;;;5089075;28;20399;-74
2023/06/12 00:03:25;;;;;;;3.15;0.80;;;;;;;;;;5088430;28;20406;-74
2023/06/12 00:05:58;;;;;;;2.28;0.90;;;;;;;;;;5106665;28;20065;-74
2023/06/12 00:08:33;;;;;;;1.58;0.80;;;;;;;;;;5087825;28;20055;-74
2023/06/12 00:11:08;;;;;;;2.10;1.00;;;;;;;;;;5106624;28;20043;-74
2023/06/12 00:13:44;;;;;;;5.10;0.88;;;;;;;;;;5106124;28;20051;-75
2023/06/12 00:16:17;;;;;;;1.20;0.90;;;;;;;;;;5106522;28;20051;-73
2023/06/12 00:18:49;;;;;;;2.40;0.80;;;;;;;;;;5106426;28;20044;-74
2023/06/12 00:21:22;;;;;;;2.92;1.10;;;;;;;;;;5106309;28;20502;-74
2023/06/12 00:23:53;;;;;;;1.90;1.25;;;;;;;;;;5106484;28;20048;-75
2023/06/12 00:26:23;;;;;;;2.60;1.10;;;;;;;;;;5105477;28;20051;-76
2023/06/12 00:28:54;;;;;;;5.75;1.35;;;;;;;;;;5087646;28;20047;-76
2023/06/12 00:31:27;;;;;;;2.78;1.00;;;;;;;;;;5106187;28;20046;-74
2023/06/12 00:33:58;;;;;;;2.08;1.00;;;;;;;;;;5105796;28;20063;-75
2023/06/12 00:36:30;;;;;;;4.78;1.30;;;;;;;;;;5084668;28;20059;-75
2023/06/12 00:39:03;;;;;;;2.88;1.13;;;;;;;;;;5102453;28;20044;-73
2023/06/12 00:41:33;;;;;;;4.25;0.95;;;;;;;;;;5104247;28;20043;-73
2023/06/12 00:44:04;;;;;;;2.03;0.90;;;;;;;;;;5103521;28;20058;-75
2023/06/12 00:46:35;;;;;;;2.13;1.30;;;;;;;;;;5103683;28;20044;-75
2023/06/12 00:49:05;;;;;;;1.92;1.10;;;;;;;;;;5103071;28;20047;-74
2023/06/12 00:51:39;;;;;;;3.70;1.20;;;;;;;;;;5085309;28;20044;-75
2023/06/12 00:54:10;;;;;;;5.03;1.60;;;;;;;;;;5105105;28;20414;-75
2023/06/12 00:56:41;;;;;;;3.72;1.38;;;;;;;;;;5102147;28;20046;-75
2023/06/12 00:59:12;;;;;;;3.33;1.40;;;;;;;;;;5105405;28;20048;-75
2023/06/12 01:01:43;;;;;;;3.33;1.08;;;;;;;;;;5084405;28;20048;-75
2023/06/12 01:04:13;;;;;;;2.35;1.52;;;;;;;;;;5104927;28;20047;-75
2023/06/12 01:07:07;;;;;;;3.72;1.40;;;;;;;;;;5086421;28;20047;-75
2023/06/12 01:09:56;;;;;;;3.00;1.70;;;;;;;;;;5083552;28;20799;-75
2023/06/12 01:12:29;;;;;;;2.85;1.25;;;;;;;;;;5085206;28;20058;-75
2023/06/12 01:15:00;;;;;;;2.28;1.20;;;;;;;;;;5084634;28;20058;-75
2023/06/12 01:17:31;;;;;;;5.07;1.58;;;;;;;;;;5103325;28;20055;-75
2023/06/12 01:20:06;;;;;;;2.42;1.45;;;;;;;;;;5101701;28;20040;-75
2023/06/12 01:22:47;;;;;;;5.65;1.40;;;;;;;;;;5103944;28;20043;-75
2023/06/12 01:25:32;;;;;;;3.25;1.50;;;;;;;;;;5104919;28;20035;-75
2023/06/12 01:28:16;;;;;;;4.88;1.35;;;;;;;;;;5086138;28;20054;-74
2023/06/12 01:31:28;;;;;;;5.20;1.60;;;;;;;;;;5103367;28;20043;-78
2023/06/12 01:34:10;;;;;;;;;;;;;;;;;;5078508;28;20070;-74
2023/06/12 01:36:46;;;;;;;2.97;1.23;;;;;;;;;;5084227;28;19935;-74
2023/06/12 01:39:18;;;;;;;2.28;1.42;;;;;;;;;;5082988;28;20510;-75
2023/06/12 01:41:49;;;;;;;2.92;1.30;;;;;;;;;;5085271;28;20047;-75
2023/06/12 01:44:21;;;;;;;3.90;1.38;;;;;;;;;;5085721;28;20067;-75
2023/06/12 01:46:51;;;;;;;6.28;1.67;;;;;;;;;;5104765;28;20412;-75
2023/06/12 01:49:22;;;;;;;2.22;1.30;;;;;;;;;;5104100;28;20054;-75
2023/06/12 01:51:55;;;;;;;6.75;1.35;;;;;;;;;;5103277;28;20042;-74
2023/06/12 01:54:25;;;;;;;4.95;1.30;;;;;;;;;;5086714;28;20062;-74
2023/06/12 01:56:57;;;;;;;4.82;1.40;;;;;;;;;;5086524;28;20052;-75
2023/06/12 01:59:29;;;;;;;6.85;1.40;;;;;;;;;;5088935;28;20036;-74
2023/06/12 02:02:02;;;;;;;4.63;1.02;;;;;;;;;;5090566;28;20058;-75
2023/06/12 02:04:32;;;;;;;3.95;1.17;;;;;;;;;;5089755;28;20508;-74
2023/06/12 02:07:03;;;;;;;3.55;1.02;;;;;;;;;;5090296;28;20047;-74
2023/06/12 02:09:36;;;;;;;1.60;0.90;;;;;;;;;;5089936;28;20066;-75
2023/06/12 02:12:08;;;;;;;1.98;1.08;;;;;;;;;;5087832;28;20066;-75
2023/06/12 02:14:41;;;;;;;9.80;1.42;;;;;;;;;;5089099;28;20043;-75
2023/06/12 02:17:13;;;;;;;2.42;0.93;;;;;;;;;;5090567;28;20514;-74
2023/06/12 02:19:47;;;;;;;5.13;1.25;;;;;;;;;;5090290;28;20051;-74
2023/06/12 02:22:18;;;;;;;2.80;1.20;;;;;;;;;;5108555;28;20044;-74
2023/06/12 02:24:48;;;;;;;3.08;1.10;;;;;;;;;;5073514;28;20040;-74
2023/06/12 02:27:18;;;;;;;3.47;1.20;;;;;;;;;;5090101;28;20070;-74
2023/06/12 02:29:49;;;;;;;;;;;;;;;;;;5090796;28;20060;-74
2023/06/12 02:32:21;;;;;;;3.78;1.65;;;;;;;;;;5089693;28;19920;-75
2023/06/12 02:34:52;;;;;;;2.60;0.93;;;;;;;;;;5108082;28;20044;-75
2023/06/12 02:37:23;;;;;;;4.03;1.00;;;;;;;;;;5089558;28;20060;-74
2023/06/12 02:39:55;;;;;;;2.10;0.80;;;;;;;;;;5089445;28;20639;-75
2023/06/12 02:42:27;;;;;;;2.03;0.90;;;;;;;;;;5107872;28;20502;-75
2023/06/12 02:44:57;;;;;;;3.22;0.95;;;;;;;;;;5108064;28;20118;-75
2023/06/12 02:47:29;;;;;;;3.30;1.33;;;;;;;;;;5089526;28;20059;-75
2023/06/12 02:50:02;;;;;;;4.00;0.80;;;;;;;;;;5089383;28;20051;-75
2023/06/12 02:52:42;;;;;;;2.28;0.80;;;;;;;;;;5089952;28;20051;-75
2023/06/12 02:55:12;;;;;;;4.80;1.10;;;;;;;;;;5089906;28;20051;-75
2023/06/12 02:57:43;;;;;;;1.98;0.88;;;;;;;;;;5086274;28;20067;-74
2023/06/12 03:00:14;;;;;;;1.23;0.88;;;;;;;;;;5087078;28;20048;-74
2023/06/12 03:02:47;;;;;;;1.92;0.70;;;;;;;;;;5085467;28;20637;-75
2023/06/12 03:05:20;;;;;;;1.92;0.77;;;;;;;;;;5069674;28;20063;-75
2023/06/12 03:07:52;;;;;;;3.80;1.00;;;;;;;;;;5085637;28;20051;-74
2023/06/12 03:10:23;;;;;;;1.30;0.80;;;;;;;;;;5087174;28;20585;-75
2023/06/12 03:12:54;;;;;;;2.25;0.90;;;;;;;;;;5087082;28;20055;-75
2023/06/12 03:15:26;;;;;;;4.32;1.00;;;;;;;;;;5087011;28;20514;-75
2023/06/12 03:17:59;;;;;;;1.80;0.80;;;;;;;;;;5085259;28;20048;-75
2023/06/12 03:20:34;;;;;;;2.78;0.88;;;;;;;;;;5086961;28;20040;-75
2023/06/12 03:23:06;;;;;;;2.70;0.65;;;;;;;;;;5085455;28;20048;-75
2023/06/12 03:25:36;;;;;;;2.42;0.80;;;;;;;;;;5084870;28;20502;-75
2023/06/12 03:28:07;;;;;;;3.60;0.70;;;;;;;;;;5084711;28;20044;-75
2023/06/12 03:30:38;;;;;;;2.85;1.00;;;;;;;;;;5085255;28;20056;-75
2023/06/12 03:33:09;;;;;;;4.18;0.85;;;;;;;;;;5084600;28;20055;-74
2023/06/12 03:35:41;;;;;;;1.95;0.80;;;;;;;;;;5085304;28;20052;-75
2023/06/12 03:38:17;;;;;;;2.30;0.80;;;;;;;;;;5084882;28;20054;-75
2023/06/12 03:40:48;;;;;;;1.02;0.63;;;;;;;;;;5086108;28;20419;-75
2023/06/12 03:43:18;;;;;;;2.13;0.52;;;;;;;;;;5085657;28;20529;-74
2023/06/12 03:45:50;;;;;;;2.45;0.50;;;;;;;;;;5085035;28;20055;-74
2023/06/12 03:48:21;;;;;;;4.85;0.80;;;;;;;;;;5085067;28;20059;-75
2023/06/12 03:50:52;;;;;;;2.80;0.65;;;;;;;;;;5087042;28;20047;-75
2023/06/12 03:53:23;;;;;;;1.50;0.38;;;;;;;;;;5085097;28;20067;-74
2023/06/12 03:55:55;;;;;;;1.88;0.70;;;;;;;;;;5086861;28;20055;-75
2023/06/12 03:58:25;;;;;;;4.47;0.63;;;;;;;;;;5071663;28;20044;-75
2023/06/12 04:00:56;;;;;;;4.60;1.20;;;;;;;;;;5088150;28;20058;-74
2023/06/12 04:03:28;;;;;;;1.05;0.40;;;;;;;;;;5087307;28;20051;-75
2023/06/12 04:05:59;;;;;;;1.50;0.63;;;;;;;;;;5088350;28;20052;-75
2023/06/12 04:08:29;;;;;;;2.95;0.80;;;;;;;;;;5088120;28;20051;-75
2023/06/12 04:11:01;;;;;;;2.08;0.60;;;;;;;;;;5088492;28;20052;-75
2023/06/12 04:13:32;;;;;;;1.45;0.45;;;;;;;;;;5088020;28;20418;-74
2023/06/12 04:16:04;;;;;;;2.40;0.40;;;;;;;;;;5088372;28;20392;-75
2023/06/12 04:18:37;;;;;;;1.58;0.45;;;;;;;;;;5087683;28;20052;-74
2023/06/12 04:21:08;;;;;;;2.00;0.60;;;;;;;;;;5087758;28;20054;-74
2023/06/12 04:23:41;;;;;;;1.73;0.45;;;;;;;;;;5086998;28;20062;-75
2023/06/12 04:26:11;;;;;;;8.77;0.82;;;;;;;;;;5087324;28;20051;-75
2023/06/12 04:28:46;;;;;;;3.13;0.75;;;;;;;;;;5088138;28;20051;-75
2023/06/12 04:31:16;;;;;;;1.80;0.70;;;;;;;;;;5087913;28;20047;-75
2023/06/12 04:33:48;;;;;;;0.52;0.50;;;;;;;;;;5087335;28;20525;-75
2023/06/12 04:36:21;;;;;;;3.40;0.50;;;;;;;;;;5087065;28;20054;-75
2023/06/12 04:38:52;;;;;;;3.03;0.52;;;;;;;;;;5087790;28;20051;-74
2023/06/12 04:41:24;;;;;;;0.50;0.47;;;;;;;;;;5087078;28;20052;-75
2023/06/12 04:44:03;;;;;;;1.85;0.60;;;;;;;;;;5087275;28;20537;-74
2023/06/12 04:46:37;;;;;;;1.23;0.60;;;;;;;;;;5086968;28;20056;-74
2023/06/12 04:49:08;;;;;;;1.73;0.50;;;;;;;;;;5087880;28;20410;-75
2023/06/12 04:51:39;;;;;;;0.80;0.70;;;;;;;;;;5105809;28;20537;-75
2023/06/12 04:54:10;;;;;;;2.05;0.88;;;;;;;;;;5105505;28;20380;-75
2023/06/12 04:56:44;;;;;;;2.78;0.68;;;;;;;;;;5086874;28;20426;-75
2023/06/12 04:59:16;;;;;;;4.07;0.70;;;;;;;;;;5086916;28;20276;-75
2023/06/12 05:01:47;;;;;;;3.75;0.60;;;;;;;;;;5086780;28;20062;-74
2023/06/12 05:04:17;;;;;;;1.15;0.60;;;;;;;;;;5086744;28;20051;-74
2023/06/12 05:06:49;;;;;;;0.50;0.47;;;;;;;;;;5087370;28;20050;-74
2023/06/12 05:09:20;;;;;;;3.03;0.57;;;;;;;;;;5105122;28;20402;-75
2023/06/12 05:11:50;;;;;;;1.25;0.43;;;;;;;;;;5086967;28;20055;-75
2023/06/12 05:14:20;;;;;;;2.15;0.57;;;;;;;;;;5086639;28;20647;-75
2023/06/12 05:16:52;;;;;;;2.25;0.50;;;;;;;;;;5105001;28;20039;-75
2023/06/12 05:19:23;;;;;;;1.25;0.75;;;;;;;;;;5086899;28;20051;-74
2023/06/12 05:21:53;;;;;;;2.95;1.27;;;;;;;;;;5105138;28;20048;-75
2023/06/12 05:24:23;;;;;;;1.55;0.57;;;;;;;;;;5105298;28;20047;-75
2023/06/12 05:26:55;;;;;;;3.55;0.38;;;;;;;;;;5087082;28;20056;-75
2023/06/12 05:29:27;;;;;;;4.25;0.63;;;;;;;;;;5086725;28;20067;-75
2023/06/12 05:31:58;;;;;;;1.27;0.60;;;;;;;;;;5086951;28;20055;-74
2023/06/12 05:34:29;;;;;;;0.85;0.50;;;;;;;;;;5089495;28;20062;-75
2023/06/12 05:37:01;;;;;;;3.05;0.52;;;;;;;;;;5091529;28;20043;-74
2023/06/12 05:39:32;;;;;;;2.63;0.68;;;;;;;;;;5091173;28;20055;-75
2023/06/12 05:42:03;;;;;;;1.95;0.60;;;;;;;;;;5091866;28;20051;-75
2023/06/12 05:44:37;;;;;;;3.40;0.75;;;;;;;;;;5090575;28;20060;-75
2023/06/12 05:47:10;;;;;;;0.68;0.47;;;;;;;;;;5108860;28;20044;-74
2023/06/12 05:49:41;;;;;;;1.95;0.73;;;;;;;;;;5090720;28;20050;-74
2023/06/12 05:52:12;;;;;;;1.60;0.70;;;;;;;;;;5109895;28;20441;-75
2023/06/12 05:54:43;;;;;;;3.95;0.63;;;;;;;;;;5090383;28;20044;-75
2023/06/12 05:57:14;;;;;;;0.95;0.43;;;;;;;;;;5109199;28;20058;-74
2023/06/12 05:59:47;;;;;;;0.98;0.50;;;;;;;;;;5108729;28;20058;-75
2023/06/12 06:02:18;;;;;;;1.08;0.40;;;;;;;;;;5090232;28;20060;-75
2023/06/12 06:04:52;;;;;;;4.25;0.50;;;;;;;;;;5089977;28;20497;-75
2023/06/12 06:07:26;;;;;;;1.00;0.47;;;;;;;;;;5090437;28;20044;-75
2023/06/12 06:09:56;;;;;;;2.20;0.63;;;;;;;;;;5090292;28;20071;-75
2023/06/12 06:12:27;;;;;;;1.27;0.75;;;;;;;;;;5089751;28;20055;-75
2023/06/12 06:14:59;;;;;;;1.27;0.60;;;;;;;;;;5089387;28;20548;-75
2023/06/12 06:17:28;;;;;;;;;;;;;;;;;;5090297;28;20050;-75
2023/06/12 06:19:59;;;;;;;2.60;0.40;;;;;;;;;;5108348;28;19920;-74
2023/06/12 06:22:29;;;;;;;;;;;;;;;;;;5108827;28;20055;-74
2023/06/12 06:25:00;;;;;;;0.40;0.40;;;;;;;;;;5089428;28;20298;-74
2023/06/12 06:27:31;;;;;;;0.47;0.40;;;;;;;;;;5089892;28;20055;-74
2023/06/12 06:30:03;;;;;;;0.68;0.43;;;;;;;;;;5108493;28;20494;-75
2023/06/12 06:32:35;;;;;;;5.20;0.70;;;;;;;;;;5089749;28;20063;-75
2023/06/12 06:35:07;;;;;;;1.15;0.50;;;;;;;;;;5089698;28;20067;-74
2023/06/12 06:37:37;;;;;;;1.25;0.60;;;;;;;;;;5108374;28;20043;-74
2023/06/12 06:40:09;;;;;;;2.22;0.68;;;;;;;;;;5089750;28;20059;-74
2023/06/12 06:42:41;;;;;;;2.95;0.70;;;;;;;;;;5089151;28;20058;-74
2023/06/12 06:45:13;;;;;;;1.95;0.70;;;;;;;;;;5087347;28;20399;-75
2023/06/12 06:47:44;;;;;;;1.70;0.70;;;;;;;;;;5089719;28;20581;-74
2023/06/12 06:50:14;;;;;;;1.70;0.60;;;;;;;;;;5072318;28;20462;-74
2023/06/12 06:52:47;;;;;;;1.85;0.70;;;;;;;;;;5088532;28;20047;-74
2023/06/12 06:55:17;;;;;;;1.65;0.70;;;;;;;;;;5108140;28;20597;-74
2023/06/12 06:57:50;;;;;;;1.08;0.57;;;;;;;;;;5089512;28;20375;-74
2023/06/12 07:00:22;;;;;;;4.53;1.10;;;;;;;;;;5106484;28;20047;-75
2023/06/12 07:02:54;;;;;;;3.35;0.82;;;;;;;;;;5088370;28;20059;-75
2023/06/12 07:05:27;;;;;;;3.33;0.80;;;;;;;;;;5088662;28;20066;-74
2023/06/12 07:07:57;;;;;;;2.72;0.90;;;;;;;;;;5089099;28;20529;-74
2023/06/12 07:10:35;;;;;;;1.17;0.80;;;;;;;;;;5090891;28;20040;-75
2023/06/12 07:13:06;;;;;;;1.20;0.60;;;;;;;;;;5107957;28;20095;-75
2023/06/12 07:15:42;;;;;;;1.15;0.80;;;;;;;;;;5089773;28;20414;-75
2023/06/12 07:18:14;;;;;;;4.38;0.70;;;;;;;;;;5089334;28;20048;-75
2023/06/12 07:20:45;;;;;;;1.63;0.80;;;;;;;;;;5107510;28;20039;-75
2023/06/12 07:23:16;;;;;;;4.32;0.95;;;;;;;;;;5088600;28;20056;-75
2023/06/12 07:25:47;;;;;;;3.30;0.90;;;;;;;;;;5090324;28;20052;-75
2023/06/12 07:28:17;;;;;;;2.38;0.70;;;;;;;;;;5089264;28;20055;-75
2023/06/12 07:30:48;;;;;;;1.95;0.60;;;;;;;;;;5088750;28;20376;-75
2023/06/12 07:33:20;;;;;;;4.30;1.10;;;;;;;;;;5088794;28;20048;-74
2023/06/12 07:35:51;;;;;;;0.95;0.80;;;;;;;;;;5107171;28;20047;-74
2023/06/12 07:38:29;;;;;;;0.47;0.40;;;;;;;;;;5090506;28;20048;-75
2023/06/12 07:41:00;;;;;;;3.92;0.88;;;;;;;;;;5088585;28;20518;-74
2023/06/12 07:43:34;;;;;;;1.65;0.70;;;;;;;;;;5088703;28;20056;-75
2023/06/12 07:46:04;;;;;;;1.83;0.85;;;;;;;;;;5107469;28;20062;-74
2023/06/12 07:48:35;;;;;;;1.05;0.75;;;;;;;;;;5088680;28;20058;-74
2023/06/12 07:51:07;;;;;;;3.30;1.00;;;;;;;;;;5088567;28;20535;-75
2023/06/12 07:53:36;;;;;;;;;;;;;;;;;;5089097;28;20055;-74
2023/06/12 07:56:16;;;;;;;1.38;0.55;;;;;;;;;;5086850;28;20406;-74
2023/06/12 07:58:49;;;;;;;3.22;0.95;;;;;;;;;;5105522;28;20052;-74
2023/06/12 08:01:22;;;;;;;1.65;0.90;;;;;;;;;;5107206;28;20046;-75
2023/06/12 08:03:56;;;;;;;1.83;0.90;;;;;;;;;;5088304;28;20035;-74
2023/06/12 08:06:29;;;;;;;1.83;1.05;;;;;;;;;;5087524;28;20047;-75
2023/06/12 08:09:00;;;;;;;1.83;1.05;;;;;;;;;;5088153;28;20521;-75
2023/06/12 08:11:31;;;;;;;4.93;0.90;;;;;;;;;;5088211;28;20424;-75
2023/06/12 08:14:01;;;;;;;2.65;1.25;;;;;;;;;;5106363;28;20048;-74
2023/06/12 08:16:35;;;;;;;2.88;1.00;;;;;;;;;;5087943;28;20106;-74
2023/06/12 08:19:06;;;;;;;3.65;1.10;;;;;;;;;;5087702;28;20051;-74
2023/06/12 08:21:37;;;;;;;3.72;1.20;;;;;;;;;;5088071;28;20048;-77
2023/06/12 08:24:09;;;;;;;0.85;0.68;;;;;;;;;;5087862;28;20051;-75
2023/06/12 08:26:41;;;;;;;5.03;1.10;;;;;;;;;;5087554;28;20063;-74
2023/06/12 08:29:12;;;;;;;2.25;1.08;;;;;;;;;;5087408;28;20051;-74
2023/06/12 08:31:43;;;;;;;1.45;0.90;;;;;;;;;;5087852;28;20052;-75
2023/06/12 08:34:15;;;;;;;1.17;0.77;;;;;;;;;;5106088;28;20054;-74
2023/06/12 08:36:47;;;;;;;6.40;1.08;;;;;;;;;;5087650;28;20700;-75
2023/06/12 08:39:17;;;;;;;2.83;0.82;;;;;;;;;;5106854;28;20383;-75
2023/06/12 08:42:08;;;;;;;2.08;0.80;;;;;;;;;;5087840;28;20358;-75
2023/06/12 08:44:43;;;;;;;2.45;0.82;;;;;;;;;;5087056;28;20048;-74
2023/06/12 08:47:18;;;;;;;3.67;0.55;;;;;;;;;;5087550;28;20061;-74
2023/06/12 08:49:48;;;;;;;3.03;0.70;;;;;;;;;;5105708;28;20058;-74
2023/06/12 08:52:20;;;;;;;0.75;0.50;;;;;;;;;;5105591;28;20047;-75
2023/06/12 08:54:53;;;;;;;5.15;0.80;;;;;;;;;;5106206;28;20055;-75
2023/06/12 08:57:24;;;;;;;1.50;0.50;;;;;;;;;;5105874;28;20414;-74
2023/06/12 08:59:54;;;;;;;4.10;0.60;;;;;;;;;;5106041;28;20059;-74
2023/06/12 09:02:25;;;;;;;1.13;0.50;;;;;;;;;;5105998;28;20052;-75
2023/06/12 09:05:02;;;;;;;2.05;0.32;;;;;;;;;;5105296;28;20410;-74
2023/06/12 09:07:37;;;;;;;1.80;0.50;;;;;;;;;;5105767;28;20481;-75
2023/06/12 09:10:07;;;;;;;1.00;0.45;;;;;;;;;;5105130;28;20066;-74
2023/06/12 09:12:45;;;;;;;1.00;0.40;;;;;;;;;;5088726;28;20055;-75
2023/06/12 09:15:20;;;;;;;1.13;0.60;;;;;;;;;;5105134;28;20074;-75
2023/06/12 09:17:52;;;;;;;4.13;0.50;;;;;;;;;;5105601;28;20555;-74
2023/06/12 09:20:27;;;;;;;2.55;0.55;;;;;;;;;;5087855;28;20047;-75
2023/06/12 09:23:01;;;;;;;2.05;0.52;;;;;;;;;;5105487;28;20048;-75
2023/06/12 09:25:36;;;;;;;3.33;0.50;;;;;;;;;;5105838;28;20071;-74
2023/06/12 09:28:09;;;;;;;3.67;0.63;;;;;;;;;;5105515;28;20044;-74
2023/06/12 09:30:40;;;;;;;9.27;0.93;;;;;;;;;;5105546;28;20840;-75
2023/06/12 09:33:11;;;;;;;2.47;0.60;;;;;;;;;;5105160;28;20506;-76
2023/06/12 09:35:52;;;;;;;0.77;0.40;;;;;;;;;;5104985;28;20489;-75
2023/06/12 09:38:30;;;;;;;0.68;0.40;;;;;;;;;;5104965;28;20506;-75
2023/06/12 09:41:03;;;;;;;2.20;0.70;;;;;;;;;;5105107;28;20490;-75
2023/06/12 09:43:34;;;;;;;2.33;0.52;;;;;;;;;;5105003;28;20047;-75
2023/06/12 09:46:08;;;;;;;1.75;0.50;;;;;;;;;;5105256;28;20052;-75
2023/06/12 09:48:41;;;;;;;1.35;0.40;;;;;;;;;;5105149;28;20501;-77
2023/06/12 09:51:12;;;;;;;1.83;0.70;;;;;;;;;;5105126;28;20063;-74
2023/06/12 09:53:44;;;;;;;4.82;0.70;;;;;;;;;;5105150;28;20505;-75
2023/06/12 09:56:14;;;;;;;0.95;0.57;;;;;;;;;;5104932;28;20051;-75
2023/06/12 09:58:51;;;;;;;1.35;0.55;;;;;;;;;;5105029;28;20055;-78
2023/06/12 10:01:25;;;;;;;2.83;0.77;;;;;;;;;;5104937;28;20054;-75
2023/06/12 10:03:59;;;;;;;5.47;0.82;;;;;;;;;;5086108;28;20043;-75
2023/06/12 10:06:33;;;;;;;2.92;1.00;;;;;;;;;;5104728;28;20059;-75
2023/06/12 10:09:06;;;;;;;2.60;0.60;;;;;;;;;;5104849;28;20051;-75
2023/06/12 10:11:37;;;;;;;2.00;0.52;;;;;;;;;;5104662;28;20043;-75
2023/06/12 10:14:08;;;;;;;1.75;0.70;;;;;;;;;;5104902;28;20390;-74
2023/06/12 10:16:42;;;;;;;2.97;0.57;;;;;;;;;;5086495;28;20066;-75
2023/06/12 10:19:13;;;;;;;1.33;0.40;;;;;;;;;;5105188;28;20043;-74
2023/06/12 10:21:45;;;;;;;1.25;0.50;;;;;;;;;;5109050;28;20058;-74
2023/06/12 10:24:16;;;;;;;2.63;0.60;;;;;;;;;;5108447;28;20418;-75
2023/06/12 10:26:49;;;;;;;3.83;0.70;;;;;;;;;;5108356;28;20047;-75
2023/06/12 10:29:31;;;;;;;2.42;0.70;;;;;;;;;;5108403;28;20051;-74
2023/06/12 10:32:10;;;;;;;1.17;0.52;;;;;;;;;;5107655;28;20050;-76
2023/06/12 10:34:43;;;;;;;0.73;0.65;;;;;;;;;;5090422;28;20043;-75
2023/06/12 10:37:39;;;;;;;2.58;0.70;;;;;;;;;;5090684;28;20051;-74
2023/06/12 10:40:22;;;;;;;2.40;0.50;;;;;;;;;;5088892;28;20074;-75
2023/06/12 10:43:12;;;;;;;1.73;0.47;;;;;;;;;;5107051;28;20510;-75
2023/06/12 10:45:56;;;;;;;0.88;0.50;;;;;;;;;;5106826;28;20059;-74
2023/06/12 10:48:28;;;;;;;1.48;0.47;;;;;;;;;;5107636;28;20048;-74
2023/06/12 10:50:59;;;;;;;3.17;0.52;;;;;;;;;;5108467;28;20054;-75
2023/06/12 10:53:29;;;;;;;3.65;0.55;;;;;;;;;;5107952;28;20055;-74
2023/06/12 10:56:07;;;;;;;1.00;0.70;;;;;;;;;;5107615;28;20532;-74
2023/06/12 10:58:42;;;;;;;4.93;0.85;;;;;;;;;;5107796;28;20046;-76
2023/06/12 11:01:17;;;;;;;2.38;0.50;;;;;;;;;;5107864;28;20055;-77
2023/06/12 11:03:51;;;;;;;2.65;0.70;;;;;;;;;;5089040;28;20047;-75
2023/06/12 11:06:28;;;;;;;1.05;0.75;;;;;;;;;;5088917;28;20051;-74
2023/06/12 11:09:09;;;;;;;6.47;1.70;;;;;;;;;;5108191;28;20744;-75
2023/06/12 11:11:47;;;;;;;2.30;0.98;;;;;;;;;;5107813;28;20043;-75
2023/06/12 11:14:27;;;;;;;3.15;1.23;;;;;;;;;;5107162;28;20055;-75
2023/06/12 11:16:59;;;;;;;1.60;0.90;;;;;;;;;;5107655;28;20047;-75
2023/06/12 11:19:30;;;;;;;12.43;1.38;;;;;;;;;;5089069;28;20055;-75
2023/06/12 11:22:04;;;;;;;4.65;1.20;;;;;;;;;;5107843;28;20066;-76
2023/06/12 11:24:35;;;;;;;2.97;1.10;;;;;;;;;;5107383;28;20031;-75
2023/06/12 11:27:06;;;;;;;4.13;1.70;;;;;;;;;;5090325;28;20517;-75
2023/06/12 11:29:36;;;;;;;2.58;1.15;;;;;;;;;;5107677;28;20494;-75
2023/06/12 11:32:27;;;;;;;6.30;1.88;;;;;;;;;;5104899;28;20121;-75
2023/06/12 11:34:59;;;;;;;5.13;1.67;;;;;;;;;;5106222;28;20893;-75
2023/06/12 11:37:30;;;;;;;8.60;1.90;;;;;;;;;;5107322;28;20039;-75
2023/06/12 11:40:14;;;;;;;9.85;1.92;;;;;;;;;;5107254;28;20051;-75
2023/06/12 11:42:46;;;;;;;4.55;2.45;;;;;;;;;;5107569;28;20406;-75
2023/06/12 11:45:17;;;;;;;4.68;1.95;;;;;;;;;;5106859;28;20670;-74
2023/06/12 11:47:49;;;;;;;3.83;1.98;;;;;;;;;;5107137;28;20525;-74
2023/06/12 11:50:22;;;;;;;5.30;1.90;;;;;;;;;;5106357;28;20051;-75
2023/06/12 11:52:55;;;;;;;4.70;2.30;;;;;;;;;;5107180;28;20039;-75
2023/06/12 11:55:26;;;;;;;7.15;2.17;;;;;;;;;;5106906;28;20047;-75
2023/06/12 11:58:02;;;;;;;10.15;2.22;;;;;;;;;;5107283;28;20099;-75
2023/06/12 12:00:35;;;;;;;5.05;1.90;;;;;;;;;;5106799;28;20051;-74
2023/06/12 12:03:13;;;;;;;6.60;2.50;;;;;;;;;;5106491;28;20051;-75
2023/06/12 12:05:45;;;;;;;7.40;2.00;;;;;;;;;;5106764;28;20043;-76
2023/06/12 12:08:17;;;;;;;7.10;2.10;;;;;;;;;;5106498;28;20052;-75
2023/06/12 12:10:47;;;;;;;5.18;1.88;;;;;;;;;;5106576;28;20062;-76
2023/06/12 12:13:18;;;;;;;5.53;2.03;;;;;;;;;;5106673;28;20092;-75
2023/06/12 12:15:48;;;;;;;6.03;2.10;;;;;;;;;;5088396;28;20056;-75
2023/06/12 12:18:21;;;;;;;7.15;1.98;;;;;;;;;;5106565;28;20047;-74
2023/06/12 12:20:52;;;;;;;4.50;2.20;;;;;;;;;;5106669;28;20441;-75
2023/06/12 12:23:25;;;;;;;6.43;2.00;;;;;;;;;;5106605;28;20048;-77
2023/06/12 12:25:58;;;;;;;4.43;1.67;;;;;;;;;;5106738;28;20058;-75
2023/06/12 12:28:30;;;;;;;7.47;1.80;;;;;;;;;;5106122;28;20051;-74
2023/06/12 12:31:01;;;;;;;6.35;1.80;;;;;;;;;;5106759;28;20062;-73
2023/06/12 12:33:32;;;;;;;10.18;2.05;;;;;;;;;;5106248;28;20079;-74
2023/06/12 12:36:05;;;;;;;8.05;1.83;;;;;;;;;;5106220;28;20055;-73
2023/06/12 12:38:35;;;;;;;2.47;1.60;;;;;;;;;;5087609;28;20059;-74
2023/06/12 12:41:08;;;;;;;3.78;1.60;;;;;;;;;;5105933;28;20047;-74
2023/06/12 12:43:40;;;;;;;6.57;1.60;;;;;;;;;;5105851;28;20059;-73
2023/06/12 12:46:10;;;;;;;3.05;1.75;;;;;;;;;;5106314;28;20044;-73
2023/06/12 12:48:41;;;;;;;8.25;3.13;;;;;;;;;;5106316;28;20047;-74
2023/06/12 12:51:13;;;;;;;5.40;2.00;;;;;;;;;;5105925;28;20043;-74
2023/06/12 12:53:43;;;;;;;2.53;1.50;;;;;;;;;;5105997;28;20094;-74
2023/06/12 12:56:16;;;;;;;2.88;1.70;;;;;;;;;;5105325;28;20058;-73
2023/06/12 12:58:46;;;;;;;4.43;1.80;;;;;;;;;;5105592;28;20078;-73
2023/06/12 13:01:18;;;;;;;3.15;1.30;;;;;;;;;;5105819;28;20502;-73
2023/06/12 13:03:54;;;;;;;4.97;1.30;;;;;;;;;;5105808;28;20498;-73
2023/06/12 13:06:34;;;;;;;5.60;1.42;;;;;;;;;;5105934;28;20047;-73
2023/06/12 13:09:04;;;;;;;6.47;1.70;;;;;;;;;;5105736;28;20048;-73
2023/06/12 13:11:35;;;;;;;3.40;1.55;;;;;;;;;;5086374;28;20055;-73
2023/06/12 13:14:05;;;;;;;2.67;1.33;;;;;;;;;;5105165;28;20050;-74
2023/06/12 13:16:36;;;;;;;4.45;1.23;;;;;;;;;;5105865;28;20039;-75
2023/06/12 13:19:07;;;;;;;5.47;1.27;;;;;;;;;;5087581;28;20035;-74
2023/06/12 13:21:40;;;;;;;4.28;1.30;;;;;;;;;;5105504;28;20058;-73
2023/06/12 13:24:11;;;;;;;6.47;1.60;;;;;;;;;;5105261;28;20051;-74
2023/06/12 13:26:42;;;;;;;5.78;1.30;;;;;;;;;;5105374;28;20048;-74
2023/06/12 13:29:13;;;;;;;3.65;1.05;;;;;;;;;;5105397;28;20506;-76
2023/06/12 13:31:45;;;;;;;5.25;1.40;;;;;;;;;;5105203;28;20039;-75
2023/06/12 13:34:15;;;;;;;3.20;0.80;;;;;;;;;;5086494;28;20044;-74
2023/06/12 13:36:45;;;;;;;6.22;1.20;;;;;;;;;;5087875;28;20434;-77
2023/06/12 13:39:18;;;;;;;4.22;1.17;;;;;;;;;;5105637;28;20087;-74
2023/06/12 13:41:52;;;;;;;6.53;1.33;;;;;;;;;;5105201;28;20414;-75
2023/06/12 13:44:23;;;;;;;4.60;1.33;;;;;;;;;;5105101;28;20394;-76
2023/06/12 13:46:54;;;;;;;3.58;1.10;;;;;;;;;;5104213;28;20502;-75
2023/06/12 13:49:24;;;;;;;2.40;1.45;;;;;;;;;;5105077;28;20051;-75
2023/06/12 13:51:54;;;;;;;5.28;1.40;;;;;;;;;;5105308;28;20039;-75
2023/06/12 13:54:24;;;;;;;9.77;1.90;;;;;;;;;;5105597;28;20058;-75
2023/06/12 13:56:56;;;;;;;8.10;1.70;;;;;;;;;;5109463;28;20422;-76
2023/06/12 13:59:26;;;;;;;3.42;1.20;;;;;;;;;;5108906;28;20047;-75
2023/06/12 14:01:56;;;;;;;2.90;1.10;;;;;;;;;;5108764;28;20040;-76
2023/06/12 14:04:27;;;;;;;5.10;1.30;;;;;;;;;;5108926;28;20048;-76
2023/06/12 14:06:59;;;;;;;4.85;1.42;;;;;;;;;;5109116;28;20047;-75
2023/06/12 14:09:29;;;;;;;3.75;1.45;;;;;;;;;;5108361;28;20044;-75
2023/06/12 14:11:59;;;;;;;2.35;1.20;;;;;;;;;;5109480;28;20055;-75
2023/06/12 14:14:30;;;;;;;2.63;1.05;;;;;;;;;;5108721;28;20043;-75
2023/06/12 14:17:01;;;;;;;3.67;1.25;;;;;;;;;;5108698;28;20771;-75
2023/06/12 14:19:33;;;;;;;3.90;1.63;;;;;;;;;;5108351;28;20051;-74
2023/06/12 14:22:03;;;;;;;4.65;1.00;;;;;;;;;;5108471;28;20055;-75
2023/06/12 14:24:33;;;;;;;3.25;1.63;;;;;;;;;;5090682;28;20047;-75
2023/06/12 14:27:07;;;;;;;3.55;1.55;;;;;;;;;;5109055;28;20047;-77
2023/06/12 14:29:37;;;;;;;2.63;0.80;;;;;;;;;;5109038;28;20418;-74
2023/06/12 14:32:10;;;;;;;2.72;0.90;;;;;;;;;;5109013;28;20066;-74
2023/06/12 14:34:40;;;;;;;1.83;0.98;;;;;;;;;;5108333;28;20505;-75
2023/06/12 14:37:10;;;;;;;4.15;0.85;;;;;;;;;;5108232;28;20044;-75
2023/06/12 14:39:41;;;;;;;3.92;0.82;;;;;;;;;;5107984;28;20118;-75
2023/06/12 14:42:13;;;;;;;6.03;0.88;;;;;;;;;;5108149;28;20055;-75
2023/06/12 14:44:44;;;;;;;4.13;1.00;;;;;;;;;;5108057;28;20054;-74
2023/06/12 14:47:16;;;;;;;2.83;0.80;;;;;;;;;;5090585;28;20522;-74
2023/06/12 14:49:46;;;;;;;1.60;0.70;;;;;;;;;;5108230;28;20561;-74
2023/06/12 14:52:17;;;;;;;2.28;0.85;;;;;;;;;;5107889;28;20140;-76
2023/06/12 14:55:03;;;;;;;2.13;1.02;;;;;;;;;;5107900;28;20819;-74
2023/06/12 14:57:34;;;;;;;5.03;1.08;;;;;;;;;;5107736;28;21007;-75
2023/06/12 15:00:04;;;;;;;4.50;1.17;;;;;;;;;;5108379;28;20055;-74
2023/06/12 15:02:36;;;;;;;9.13;1.60;;;;;;;;;;5108465;28;20051;-75
2023/06/12 15:05:07;;;;;;;4.28;1.25;;;;;;;;;;5108109;28;20051;-78
2023/06/12 15:07:39;;;;;;;3.80;1.27;;;;;;;;;;5106967;28;20066;-75
2023/06/12 15:10:10;;;;;;;8.63;2.53;;;;;;;;;;5107706;28;20047;-75
2023/06/12 15:12:40;;;;;;;2.08;1.08;;;;;;;;;;5107499;28;20052;-75
2023/06/12 15:15:24;;;;;;;4.47;1.00;;;;;;;;;;5107800;28;20047;-75
2023/06/12 15:17:57;;;;;;;3.60;1.10;;;;;;;;;;5107469;28;20502;-74